Strona główna
METAR-TAF:

METAR-TAF

Lotnisko :

Port lotniczy Brive

Brive-la-Gaillarde, Francja

Szerokość geograficzna: 45-02-28N, Długość geograficzna: 001-28-59E, wysokość: 311 m

Aktualna obserwacja pogody

Raport powstał 15 minut temu, godzina 09:00 UTC
Wiatr 2 kt z kierunków zmiennych
Temperatura 24°C
Wilgotność 69%
Ciśnienie 1023 hPa
Widzialność 10 km lub więcej
Zachmurzenie całkowite na wysokości 3800 ft

METAR: LFSL 210900Z AUTO VRB02KT 9999 OVC038 24/18 Q1023 NOSIG

czas: 11:15 (09:15 UTC)

Prognoza

Raport powstał 1 godzina i 15 minut temu, godzina 08:00 UTC
Prognoza ważna od 21 godzina 09 UTC do 21 godzina 18 UTC
Wiatr 4 kt od północny zachód
Widzialność 10 km lub więcej
Rozproszone chmury na wysokości 4000 ft
Stopniowe zmiany
od 21 godzina 13 UTC do 21 godzina 15 UTC
Widzialność 10 km lub więcej
Brak chmur poniżej 1500 m i brak chmur cumulonimbus

TAF: LFSL 210800Z 2109/2118 31004KT 9999 SCT040 BECMG 2113/2115 CAVOK

Obserwacja i prognoza pogody dla ponad 4000 lotnisk (raport METAR i TAF).

Dostępne stacje oznaczono żółtymi i czerwonymi punktami na mapie.

Najedź kursorem aby zobaczyć nazwę stacji.

Kliknij aby zobaczyć obserwacje i prognozy pogody.

Aby zmienić mapę: kliknij na zielony przycisk z czarnym krzyżykiem, aby powiększyć; na zielony przycisk z myślnikiem, aby pomniejszyć; na zielone strzałki, aby przejść do map sąsiednich.


METAR-TAF: